Data for 03/05/2010

Time Sea-Level Adjusted Pressure Absolute Pressure Temperature Relative Humidity Dew Point   
(mb) (inHg) (mb) (inHg) (C) (F) (%) (C) (F)
00:05 1012 29.88 841 24.83 2.3 36.2 68 -3.1 26.5
00:10 1012 29.88 841 24.83 2.2 35.9 69 -3 26.6
00:15 1012 29.88 841 24.83 2.1 35.8 70 -2.8 27
00:20 1012 29.88 841 24.83 1.9 35.5 70 -3 26.6
00:25 1012 29.88 841 24.83 2 35.6 71 -2.8 27
00:30 1012 29.88 841 24.83 2 35.6 70 -3 26.7
00:35 1012 29.88 841 24.83 2.2 35.9 69 -2.9 26.7
00:40 1012 29.88 841 24.83 2.2 36 70 -2.7 27.1
00:45 1012 29.88 841 24.83 2 35.6 71 -2.8 27
00:50 1012 29.88 841 24.83 1.7 35.1 72 -2.9 26.8
00:55 1012 29.88 841 24.83 1.9 35.5 70 -3 26.6
01:00 1012 29.88 841 24.83 2.1 35.8 70 -2.8 27
01:05 1012 29.88 841 24.83 1.8 35.2 71 -2.8 26.9
01:10 1012 29.88 841 24.83 2 35.6 70 -2.9 26.8
01:15 1012 29.88 841 24.83 2.2 36 69 -2.9 26.8
01:20 1012 29.88 841 24.83 2.3 36.1 69 -2.8 26.9
01:25 1012 29.88 841 24.83 2 35.6 71 -2.8 27
01:30 1012 29.88 841 24.83 2 35.6 71 -2.8 26.9
01:35 1012 29.88 841 24.83 1.9 35.5 71 -2.8 27
01:40 1012 29.88 841 24.83 1.9 35.4 71 -2.8 26.9
01:45 1012 29.88 841 24.83 1.8 35.3 72 -2.7 27.1
01:50 1012 29.88 842 24.86 1.9 35.4 71 -2.8 27
01:55 1012 29.88 842 24.86 1.8 35.2 71 -2.9 26.9
02:00 1012 29.88 842 24.86 1.7 35.1 72 -2.8 27
02:05 1012 29.88 842 24.86 1.6 35 72 -2.8 26.9
02:10 1012 29.88 842 24.86 1.6 34.9 72 -2.8 26.9
02:15 1012 29.88 842 24.86 1.7 35 72 -2.9 26.8
02:20 1012 29.88 842 24.86 1.7 35 72 -2.7 27.1
02:25 1012 29.88 842 24.86 1.7 35.1 72 -2.7 27.1
02:30 1013 29.91 842 24.86 1.7 35 73 -2.6 27.2
02:35 1012 29.88 842 24.86 1.6 34.8 72 -3 26.6
02:40 1012 29.88 842 24.86 1.6 34.9 73 -2.8 27
02:45 1013 29.91 842 24.86 1.7 35 73 -2.6 27.3
02:50 1013 29.91 842 24.86 1.4 34.6 74 -2.6 27.3
02:55 1013 29.91 842 24.86 1.5 34.7 74 -2.7 27.1
03:00 1013 29.91 842 24.86 1.8 35.2 72 -2.7 27.2
03:05 1013 29.91 842 24.86 1.8 35.3 73 -2.5 27.5
03:10 1013 29.91 842 24.86 1.8 35.2 73 -2.5 27.5
03:15 1013 29.91 842 24.86 1.7 35 73 -2.6 27.3
03:20 1013 29.91 842 24.86 1.9 35.4 72 -2.7 27.2
03:25 1013 29.91 842 24.86 2.2 36 70 -2.6 27.3
03:30 1013 29.91 842 24.86 2.5 36.4 70 -2.5 27.5
03:35 1013 29.91 842 24.86 2.5 36.5 70 -2.4 27.7
03:40 1013 29.91 842 24.86 2.1 35.9 72 -2.3 27.9
03:45 1013 29.91 842 24.86 1.9 35.5 73 -2.4 27.6
03:50 1013 29.91 842 24.86 1.9 35.4 73 -2.4 27.7
03:55 1013 29.91 842 24.86 1.9 35.4 75 -2.2 28.1
04:00 1013 29.91 842 24.86 1.8 35.2 76 -2.1 28.3
04:05 1013 29.91 842 24.86 1.8 35.3 77 -1.8 28.7
04:10 1013 29.91 842 24.86 1.7 35.1 79 -1.5 29.3
04:15 1013 29.91 842 24.86 1.7 35.1 80 -1.4 29.5
04:20 1013 29.91 843 24.89 1.6 34.8 82 -1.2 29.9
04:25 1013 29.91 843 24.89 1.3 34.4 84 -1 30.1
04:30 1013 29.91 843 24.89 1 33.8 86 -1 30.2
04:35 1013 29.91 843 24.89 0.8 33.4 89 -0.8 30.6
04:40 1013 29.91 843 24.89 0.5 32.9 91 -0.7 30.7
04:45 1014 29.94 843 24.89 0.4 32.8 93 -0.6 30.9
04:50 1014 29.94 843 24.89 0.4 32.7 93 -0.5 31
04:55 1014 29.94 843 24.89 0.3 32.6 94 -0.5 31.1
05:00 1014 29.94 843 24.89 0.3 32.5 95 -0.5 31.2
05:05 1014 29.94 843 24.89 0.2 32.4 95 -0.4 31.2
05:10 1014 29.94 843 24.89 0.2 32.4 96 -0.4 31.3
05:15 1014 29.94 843 24.89 0.2 32.3 96 -0.4 31.3
05:20 1014 29.94 843 24.89 0.2 32.4 96 -0.4 31.4
05:25 1014 29.94 843 24.89 0.2 32.4 96 -0.3 31.4
05:30 1014 29.94 843 24.89 0.2 32.4 97 -0.3 31.5
05:35 1014 29.94 843 24.89 0.2 32.4 97 -0.2 31.6
05:40 1014 29.94 843 24.89 0.3 32.5 97 -0.2 31.6
05:45 1014 29.94 843 24.89 0.3 32.5 97 -0.2 31.7
05:50 1014 29.94 843 24.89 0.3 32.6 97 -0.1 31.8
05:55 1014 29.94 843 24.89 0.3 32.5 97 -0.2 31.7
06:00 1014 29.94 843 24.89 0.3 32.6 97 -0.1 31.8
06:05 1014 29.94 843 24.89 0.4 32.7 97 -0.1 31.8
06:10 1014 29.94 844 24.92 0.4 32.7 97 -0 31.9
06:15 1014 29.94 844 24.92 0.5 32.9 97 0 32
06:20 1014 29.94 844 24.92 0.5 32.9 96 0 32
06:25 1015 29.97 844 24.92 0.6 33 96 0 32.1
06:30 1015 29.97 844 24.92 0.7 33.3 96 0.2 32.3
06:35 1015 29.97 844 24.92 0.8 33.5 96 0.2 32.3
06:40 1015 29.97 844 24.92 0.8 33.4 95 0.1 32.1
06:45 1015 29.97 844 24.92 0.7 33.3 95 0 32.1
06:50 1015 29.97 844 24.92 0.7 33.3 95 0 32
06:55 1015 29.97 844 24.92 0.7 33.2 95 -0 31.9
07:00 1015 29.97 844 24.92 0.6 33.1 95 -0.1 31.9
07:05 1015 29.97 844 24.92 0.7 33.2 95 -0 32
07:10 1015 29.97 844 24.92 0.7 33.2 95 0 32
07:15 1015 29.97 844 24.92 0.8 33.4 95 0.1 32.2
07:20 1015 29.97 844 24.92 0.8 33.4 95 0.1 32.2
07:25 1015 29.97 844 24.92 0.8 33.5 95 0.2 32.3
07:30 1015 29.97 844 24.92 0.9 33.7 95 0.2 32.4
07:35 1015 29.97 844 24.92 1 33.8 95 0.2 32.4
07:40 1015 29.97 844 24.92 1 33.8 94 0.2 32.3
07:45 1015 29.97 845 24.95 1 33.8 94 0.1 32.2
07:50 1015 29.97 845 24.95 1 33.8 95 0.2 32.3
07:55 1015 29.97 845 24.95 1.1 34 94 0.2 32.4
08:00 1016 30 845 24.95 1.1 33.9 94 0.2 32.3
08:05 1016 30 845 24.95 1 33.8 94 0.1 32.2
08:10 1016 30 845 24.95 1 33.7 94 0.1 32.2
08:15 1016 30 845 24.95 1.1 33.9 93 0.1 32.2
08:20 1016 30 845 24.95 1 33.7 94 0 32.1
08:25 1016 30 845 24.95 0.9 33.6 94 -0 32
08:30 1016 30 845 24.95 0.9 33.7 93 0 32
08:35 1016 30 845 24.95 1 33.7 93 0 32
08:40 1016 30 845 24.95 1 33.9 92 -0.1 31.9
08:45 1016 30 845 24.95 1 33.7 93 -0 31.9
08:50 1016 30 845 24.95 0.9 33.5 94 0 32.1
08:55 1016 30 845 24.95 1 33.8 93 0 32
09:00 1016 30 845 24.95 1 33.7 94 0 32.1
09:05 1016 30 845 24.95 1 33.8 94 0 32.1
09:10 1016 30 845 24.95 1 33.9 93 -0 32
09:15 1016 30 845 24.95 0.9 33.6 94 -0 32
09:20 1016 30 845 24.95 1 33.9 94 0.1 32.2
09:25 1016 30 846 24.98 1.3 34.3 93 0.3 32.5
09:30 1016 30 846 24.98 1.5 34.7 92 0.3 32.5
09:35 1016 30 846 24.98 1.6 34.9 91 0.2 32.4
09:40 1017 30.03 846 24.98 1.4 34.5 92 0.2 32.3
09:45 1017 30.03 846 24.98 1.3 34.4 92 0.1 32.2
09:50 1017 30.03 846 24.98 1.4 34.5 92 0.2 32.4
09:55 1017 30.03 846 24.98 1.4 34.6 92 0.3 32.5
10:00 1017 30.03 846 24.98 1.4 34.6 92 0.2 32.4
10:05 1017 30.03 846 24.98 1.3 34.3 93 0.3 32.5
10:10 1017 30.03 846 24.98 1.5 34.7 91 0.2 32.4
10:15 1017 30.03 846 24.98 1.5 34.7 92 0.2 32.4
10:20 1017 30.03 846 24.98 1.6 34.9 92 0.4 32.7
10:25 1017 30.03 846 24.98 1.7 35.1 91 0.4 32.7
10:30 1017 30.03 846 24.98 1.6 34.8 91 0.3 32.6
10:35 1017 30.03 846 24.98 1.5 34.7 92 0.4 32.7
10:40 1017 30.03 846 24.98 1.7 35.1 91 0.4 32.7
10:45 1017 30.03 846 24.98 1.8 35.3 91 0.4 32.8
10:50 1017 30.03 846 24.98 2 35.6 89 0.4 32.7
10:55 1017 30.03 846 24.98 1.9 35.5 90 0.5 32.9
11:00 1017 30.03 846 24.98 2.2 35.9 89 0.5 32.9
11:05 1017 30.03 846 24.98 2.3 36.1 88 0.5 32.9
11:10 1017 30.03 846 24.98 2.1 35.8 88 0.3 32.6
11:15 1017 30.03 846 24.98 2.2 36 89 0.5 33
11:20 1017 30.03 846 24.98 2.5 36.5 88 0.7 33.2
11:25 1017 30.03 846 24.98 2.7 36.9 86 0.5 33
11:30 1017 30.03 846 24.98 2.8 37.1 86 0.7 33.2
11:35 1017 30.03 846 24.98 2.9 37.3 84 0.5 32.9
11:40 1017 30.03 847 25.01 2.9 37.3 84 0.5 32.9
11:45 1017 30.03 847 25.01 3.2 37.7 83 0.5 32.9
11:50 1017 30.03 847 25.01 3.4 38.2 84 0.9 33.7
11:55 1017 30.03 847 25.01 3.4 38.1 82 0.7 33.2
12:00 1018 30.06 847 25.01 3.1 37.5 85 0.8 33.5
12:05 1018 30.06 847 25.01 3.3 37.9 82 0.5 33
12:10 1018 30.06 847 25.01 3.5 38.3 80 0.4 32.8
12:15 1018 30.06 847 25.01 2.9 37.3 84 0.6 33
12:20 1018 30.06 847 25.01 3 37.4 83 0.4 32.7
12:25 1018 30.06 847 25.01 3.2 37.7 84 0.8 33.4
12:30 1018 30.06 847 25.01 3.6 38.5 82 0.8 33.5
12:35 1018 30.06 847 25.01 3.8 38.9 81 0.9 33.6
12:40 1018 30.06 847 25.01 3.2 37.8 83 0.6 33.2
12:45 1018 30.06 847 25.01 3 37.5 84 0.5 33
12:50 1018 30.06 847 25.01 3.3 37.9 83 0.6 33.1
12:55 1018 30.06 847 25.01 3.5 38.3 82 0.8 33.4
13:00 1018 30.06 847 25.01 3.9 39.1 79 0.7 33.2
13:05 1018 30.06 847 25.01 4.1 39.4 81 1.1 34
13:10 1018 30.06 847 25.01 4.1 39.4 80 1 33.8
13:15 1018 30.06 847 25.01 4.4 39.8 78 0.8 33.4
13:20 1018 30.06 847 25.01 4.4 40 79 1 33.9
13:25 1018 30.06 847 25.01 4.5 40.1 77 0.9 33.6
13:30 1018 30.06 847 25.01 4.6 40.3 76 0.7 33.2
13:35 1018 30.06 847 25.01 4.8 40.7 74 0.6 33.1
13:40 1018 30.06 847 25.01 4.6 40.3 77 0.9 33.5
13:45 1018 30.06 847 25.01 5 41 73 0.6 33.1
13:50 1018 30.06 847 25.01 4.8 40.7 74 0.6 33.1
13:55 1018 30.06 847 25.01 4.3 39.7 76 0.5 32.9
14:00 1018 30.06 847 25.01 4.3 39.7 77 0.6 33.1
14:05 1018 30.06 847 25.01 4.4 40 77 0.7 33.2
14:10 1018 30.06 847 25.01 4.2 39.5 77 0.6 33.1
14:15 1018 30.06 847 25.01 4.5 40.2 76 0.6 33.2
14:20 1018 30.06 847 25.01 3.7 38.6 79 0.3 32.6
14:25 1018 30.06 847 25.01 3.9 38.9 76 -0 31.9
14:30 1018 30.06 847 25.01 5 41 70 -0 32
14:35 1018 30.06 847 25.01 5.1 41.1 73 0.6 33.1
14:40 1018 30.06 847 25.01 5 41 71 0.1 32.2
14:45 1018 30.06 847 25.01 4.8 40.6 72 0.1 32.2
14:50 1018 30.06 847 25.01 4.2 39.6 76 0.4 32.7
14:55 1018 30.06 847 25.01 4.2 39.6 74 0 32
15:00 1018 30.06 847 25.01 4.4 39.9 76 0.5 32.9
15:05 1018 30.06 847 25.01 4.5 40 74 0.2 32.4
15:10 1018 30.06 847 25.01 4.9 40.9 70 -0.1 31.9
15:15 1018 30.06 847 25.01 5.2 41.3 69 0.1 32.1
15:20 1018 30.06 847 25.01 5 41 70 -0.1 31.8
15:25 1018 30.06 847 25.01 5 40.9 69 -0.2 31.7
15:30 1018 30.06 847 25.01 4.9 40.8 72 0.2 32.3
15:35 1018 30.06 847 25.01 5.3 41.5 69 0.1 32.2
15:40 1018 30.06 847 25.01 4.8 40.7 71 0.1 32.2
15:45 1018 30.06 847 25.01 4.6 40.3 73 0.2 32.3
15:50 1018 30.06 847 25.01 5 41.1 71 0.3 32.6
15:55 1018 30.06 847 25.01 5.4 41.6 69 0.1 32.2
16:00 1018 30.06 847 25.01 5 41 71 0.2 32.3
16:05 1018 30.06 847 25.01 5 41 71 0.2 32.3
16:10 1018 30.06 847 25.01 4.9 40.9 71 0.2 32.4
16:15 1018 30.06 847 25.01 4.5 40.2 75 0.5 32.9
16:20 1018 30.06 847 25.01 4.1 39.4 75 0.1 32.1
16:25 1018 30.06 847 25.01 4.3 39.8 73 -0.1 31.8
16:30 1018 30.06 847 25.01 4.9 40.8 71 -0 32
16:35 1018 30.06 847 25.01 5.1 41.2 70 0.1 32.2
16:40 1018 30.06 847 25.01 5.1 41.2 71 0.2 32.3
16:45 1018 30.06 847 25.01 4.9 40.8 71 0.1 32.2
16:50 1018 30.06 847 25.01 4.9 40.8 70 -0.1 31.8
16:55 1018 30.06 847 25.01 5.3 41.6 68 -0 32
17:00 1018 30.06 847 25.01 5.3 41.5 70 0.3 32.6
17:05 1018 30.06 848 25.04 5.1 41.2 70 0.1 32.2
17:10 1018 30.06 848 25.04 4.9 40.9 70 0 32
17:15 1018 30.06 848 25.04 5.1 41.2 70 0.1 32.2
17:20 1018 30.06 848 25.04 5.2 41.3 69 -0.1 31.8
17:25 1018 30.06 848 25.04 5.2 41.4 68 -0.2 31.7
17:30 1018 30.06 848 25.04 5 41 68 -0.4 31.4
17:35 1018 30.06 848 25.04 5 41 68 -0.4 31.3
17:40 1018 30.06 848 25.04 4.9 40.8 68 -0.5 31.1
17:45 1018 30.06 848 25.04 4.9 40.9 67 -0.6 30.9
17:50 1018 30.06 848 25.04 4.7 40.5 70 -0.2 31.6
17:55 1019 30.09 848 25.04 4.6 40.2 73 0.1 32.2
18:00 1019 30.09 848 25.04 4 39.2 76 0.1 32.2
18:05 1019 30.09 848 25.04 3.6 38.4 77 -0 32
18:10 1019 30.09 848 25.04 3.3 38 78 -0.1 31.8
18:15 1019 30.09 848 25.04 3.2 37.7 79 -0.2 31.7
18:20 1019 30.09 848 25.04 3.2 37.7 79 -0.2 31.7
18:25 1019 30.09 848 25.04 3 37.5 79 -0.2 31.7
18:30 1019 30.09 848 25.04 2.9 37.3 80 -0.2 31.6
18:35 1019 30.09 848 25.04 2.9 37.2 80 -0.3 31.5
18:40 1019 30.09 848 25.04 2.8 37 80 -0.3 31.5
18:45 1019 30.09 848 25.04 2.7 36.9 80 -0.3 31.4
18:50 1019 30.09 848 25.04 2.6 36.8 81 -0.3 31.4
18:55 1019 30.09 848 25.04 2.5 36.5 81 -0.4 31.4
19:00 1019 30.09 848 25.04 2.4 36.3 82 -0.4 31.3
19:05 1019 30.09 848 25.04 2.4 36.4 82 -0.4 31.3
19:10 1019 30.09 848 25.04 2.5 36.4 81 -0.4 31.2
19:15 1019 30.09 848 25.04 2.5 36.5 81 -0.5 31.1
19:20 1019 30.09 848 25.04 2.5 36.5 81 -0.4 31.2
19:25 1019 30.09 848 25.04 2.4 36.4 81 -0.5 31.2
19:30 1019 30.09 848 25.04 2.3 36.1 82 -0.5 31.1
19:35 1019 30.09 848 25.04 2 35.7 83 -0.6 31
19:40 1019 30.09 848 25.04 1.8 35.3 84 -0.6 31
19:45 1019 30.09 848 25.04 1.6 34.9 85 -0.6 30.9
19:50 1019 30.09 848 25.04 1.5 34.6 86 -0.7 30.8
19:55 1019 30.09 848 25.04 1.5 34.7 85 -0.7 30.7
20:00 1019 30.09 849 25.07 1.8 35.2 85 -0.5 31.1
20:05 1019 30.09 849 25.07 2.1 35.7 84 -0.3 31.4
20:10 1019 30.09 849 25.07 2.2 35.9 84 -0.2 31.6
20:15 1019 30.09 849 25.07 2.1 35.8 85 -0.1 31.7
20:20 1019 30.09 849 25.07 2 35.6 85 -0.3 31.5
20:25 1019 30.09 849 25.07 2.1 35.7 84 -0.4 31.3
20:30 1019 30.09 849 25.07 2.1 35.7 85 -0.3 31.5
20:35 1020 30.12 849 25.07 2.1 35.7 84 -0.3 31.5
20:40 1020 30.12 849 25.07 2.2 35.9 84 -0.2 31.6
20:45 1020 30.12 849 25.07 2.2 36 84 -0.1 31.8
20:50 1020 30.12 849 25.07 2.2 36 84 -0.2 31.6
20:55 1020 30.12 849 25.07 2.3 36.1 84 -0.1 31.8
21:00 1020 30.12 849 25.07 2.2 36 85 -0 31.9
21:05 1020 30.12 849 25.07 2.2 35.9 83 -0.4 31.4
21:10 1020 30.12 849 25.07 2.4 36.3 83 -0.2 31.6
21:15 1020 30.12 849 25.07 2.5 36.5 82 -0.3 31.4
21:20 1020 30.12 849 25.07 2.5 36.6 81 -0.4 31.4
21:25 1020 30.12 849 25.07 2.6 36.7 81 -0.2 31.6
21:30 1020 30.12 849 25.07 2.6 36.7 82 -0.2 31.7
21:35 1020 30.12 849 25.07 2.6 36.7 83 -0.1 31.9
21:40 1020 30.12 849 25.07 2.5 36.5 84 0 32
21:45 1020 30.12 849 25.07 2.4 36.3 84 -0 32
21:50 1020 30.12 849 25.07 2.4 36.3 84 -0 32
21:55 1020 30.12 849 25.07 2.4 36.3 84 -0.1 31.9
22:00 1020 30.12 849 25.07 2.4 36.3 83 -0.1 31.8
22:05 1020 30.12 849 25.07 2.4 36.3 83 -0.2 31.6
22:10 1020 30.12 849 25.07 2.3 36.1 83 -0.3 31.4
22:15 1020 30.12 849 25.07 2.3 36.1 83 -0.4 31.3
22:20 1020 30.12 849 25.07 2.2 35.9 83 -0.4 31.3
22:25 1020 30.12 849 25.07 2 35.6 84 -0.4 31.4
22:30 1020 30.12 849 25.07 1.9 35.5 84 -0.4 31.2
22:35 1020 30.12 849 25.07 2.1 35.7 83 -0.6 30.9
22:40 1020 30.12 849 25.07 2 35.7 84 -0.3 31.4
22:45 1020 30.12 849 25.07 1.9 35.4 85 -0.3 31.5
22:50 1020 30.12 849 25.07 1.8 35.3 86 -0.3 31.4
22:55 1020 30.12 849 25.07 1.9 35.4 85 -0.3 31.4
23:00 1020 30.12 849 25.07 1.7 35.1 86 -0.4 31.3
23:05 1020 30.12 849 25.07 1.4 34.6 87 -0.6 31
23:10 1020 30.12 849 25.07 1.3 34.4 87 -0.7 30.8
23:15 1020 30.12 850 25.1 1.2 34.2 87 -0.8 30.6
23:20 1020 30.12 850 25.1 1.3 34.3 86 -0.8 30.5
23:25 1020 30.12 850 25.1 1.3 34.4 85 -0.8 30.5
23:30 1020 30.12 850 25.1 1.3 34.3 86 -0.8 30.6
23:35 1021 30.15 850 25.1 1.2 34.1 86 -0.9 30.4
23:40 1021 30.15 850 25.1 1.1 34 87 -0.8 30.6
23:45 1021 30.15 850 25.1 1 33.8 88 -0.8 30.6
23:50 1021 30.15 850 25.1 1 33.8 87 -0.9 30.4
23:55 1021 30.15 850 25.1 1 33.7 87 -1 30.3
24:00 1021 30.15 850 25.1 0.9 33.6 87 -1 30.2